sensor_id;sensor_type;location;lat;lon;timestamp;P1;durP1;ratioP1;P2;durP2;ratioP2
54881;SDS011;40775;51.448;4.742;2023-08-24T00:01:59;1.38;;;0.90;;
54881;SDS011;40775;51.448;4.742;2023-08-24T00:04:26;2.13;;;1.00;;
54881;SDS011;40775;51.448;4.742;2023-08-24T00:06:54;1.65;;;0.90;;
54881;SDS011;40775;51.448;4.742;2023-08-24T00:09:21;4.25;;;1.33;;
54881;SDS011;40775;51.448;4.742;2023-08-24T00:11:48;1.92;;;0.80;;
54881;SDS011;40775;51.448;4.742;2023-08-24T00:14:15;1.73;;;1.10;;
54881;SDS011;40775;51.448;4.742;2023-08-24T00:16:42;1.45;;;0.82;;
54881;SDS011;40775;51.448;4.742;2023-08-24T00:19:09;1.65;;;0.90;;
54881;SDS011;40775;51.448;4.742;2023-08-24T00:21:37;1.88;;;0.90;;
54881;SDS011;40775;51.448;4.742;2023-08-24T00:24:04;1.52;;;0.80;;
54881;SDS011;40775;51.448;4.742;2023-08-24T00:26:31;2.10;;;0.98;;
54881;SDS011;40775;51.448;4.742;2023-08-24T00:28:58;2.90;;;1.00;;
54881;SDS011;40775;51.448;4.742;2023-08-24T00:31:25;8.07;;;1.17;;
54881;SDS011;40775;51.448;4.742;2023-08-24T00:33:52;1.83;;;1.00;;
54881;SDS011;40775;51.448;4.742;2023-08-24T00:36:19;1.13;;;0.77;;
54881;SDS011;40775;51.448;4.742;2023-08-24T00:38:47;2.20;;;0.80;;
54881;SDS011;40775;51.448;4.742;2023-08-24T00:41:17;2.05;;;1.00;;
54881;SDS011;40775;51.448;4.742;2023-08-24T00:43:44;2.05;;;0.90;;
54881;SDS011;40775;51.448;4.742;2023-08-24T00:46:11;1.30;;;0.73;;
54881;SDS011;40775;51.448;4.742;2023-08-24T00:48:39;1.10;;;0.77;;
54881;SDS011;40775;51.448;4.742;2023-08-24T00:51:06;1.73;;;0.70;;
54881;SDS011;40775;51.448;4.742;2023-08-24T00:53:34;2.97;;;1.00;;
54881;SDS011;40775;51.448;4.742;2023-08-24T00:56:03;3.38;;;1.10;;
54881;SDS011;40775;51.448;4.742;2023-08-24T00:58:31;2.13;;;1.17;;
54881;SDS011;40775;51.448;4.742;2023-08-24T01:00:59;1.27;;;0.90;;
54881;SDS011;40775;51.448;4.742;2023-08-24T01:03:27;3.05;;;1.00;;
54881;SDS011;40775;51.448;4.742;2023-08-24T01:05:54;2.63;;;1.00;;
54881;SDS011;40775;51.448;4.742;2023-08-24T01:08:21;1.38;;;0.80;;
54881;SDS011;40775;51.448;4.742;2023-08-24T01:14:04;2.70;;;0.90;;
54881;SDS011;40775;51.448;4.742;2023-08-24T01:16:45;2.28;;;1.05;;
54881;SDS011;40775;51.448;4.742;2023-08-24T01:19:33;1.80;;;1.00;;
54881;SDS011;40775;51.448;4.742;2023-08-24T01:22:07;1.98;;;0.90;;
54881;SDS011;40775;51.448;4.742;2023-08-24T01:24:53;1.77;;;1.00;;
54881;SDS011;40775;51.448;4.742;2023-08-24T01:27:34;1.48;;;0.90;;
54881;SDS011;40775;51.448;4.742;2023-08-24T01:30:02;2.38;;;1.08;;
54881;SDS011;40775;51.448;4.742;2023-08-24T01:32:31;3.60;;;1.27;;
54881;SDS011;40775;51.448;4.742;2023-08-24T01:35:04;2.83;;;1.13;;
54881;SDS011;40775;51.448;4.742;2023-08-24T01:37:35;2.50;;;1.13;;
54881;SDS011;40775;51.448;4.742;2023-08-24T01:40:05;2.30;;;1.00;;
54881;SDS011;40775;51.448;4.742;2023-08-24T01:42:47;2.35;;;1.08;;
54881;SDS011;40775;51.448;4.742;2023-08-24T01:45:32;1.95;;;0.90;;
54881;SDS011;40775;51.448;4.742;2023-08-24T01:48:00;1.48;;;0.90;;
54881;SDS011;40775;51.448;4.742;2023-08-24T01:50:30;2.53;;;0.93;;
54881;SDS011;40775;51.448;4.742;2023-08-24T01:52:58;1.88;;;1.00;;
54881;SDS011;40775;51.448;4.742;2023-08-24T01:55:26;1.45;;;1.10;;
54881;SDS011;40775;51.448;4.742;2023-08-24T01:57:54;1.95;;;0.93;;
54881;SDS011;40775;51.448;4.742;2023-08-24T02:00:22;1.92;;;0.98;;
54881;SDS011;40775;51.448;4.742;2023-08-24T02:02:49;1.42;;;0.70;;
54881;SDS011;40775;51.448;4.742;2023-08-24T02:05:17;1.38;;;1.00;;
54881;SDS011;40775;51.448;4.742;2023-08-24T02:07:44;2.15;;;0.90;;
54881;SDS011;40775;51.448;4.742;2023-08-24T02:10:11;1.40;;;0.90;;
54881;SDS011;40775;51.448;4.742;2023-08-24T02:12:38;3.40;;;1.30;;
54881;SDS011;40775;51.448;4.742;2023-08-24T02:15:05;2.10;;;1.20;;
54881;SDS011;40775;51.448;4.742;2023-08-24T02:17:32;2.08;;;0.95;;
54881;SDS011;40775;51.448;4.742;2023-08-24T02:20:00;1.63;;;1.10;;
54881;SDS011;40775;51.448;4.742;2023-08-24T02:22:28;2.15;;;1.20;;
54881;SDS011;40775;51.448;4.742;2023-08-24T02:24:56;2.28;;;1.00;;
54881;SDS011;40775;51.448;4.742;2023-08-24T02:27:23;2.50;;;1.10;;
54881;SDS011;40775;51.448;4.742;2023-08-24T02:29:50;2.13;;;1.25;;
54881;SDS011;40775;51.448;4.742;2023-08-24T02:32:17;2.80;;;1.23;;
54881;SDS011;40775;51.448;4.742;2023-08-24T02:34:44;1.85;;;1.10;;
54881;SDS011;40775;51.448;4.742;2023-08-24T02:37:11;1.70;;;1.10;;
54881;SDS011;40775;51.448;4.742;2023-08-24T02:39:38;2.50;;;0.93;;
54881;SDS011;40775;51.448;4.742;2023-08-24T02:42:05;2.20;;;1.25;;
54881;SDS011;40775;51.448;4.742;2023-08-24T02:44:32;4.15;;;1.00;;
54881;SDS011;40775;51.448;4.742;2023-08-24T02:46:59;2.00;;;1.08;;
54881;SDS011;40775;51.448;4.742;2023-08-24T02:49:27;1.75;;;1.15;;
54881;SDS011;40775;51.448;4.742;2023-08-24T02:51:54;3.00;;;1.10;;
54881;SDS011;40775;51.448;4.742;2023-08-24T02:54:21;1.80;;;1.00;;
54881;SDS011;40775;51.448;4.742;2023-08-24T02:56:48;2.30;;;1.15;;
54881;SDS011;40775;51.448;4.742;2023-08-24T02:59:15;2.38;;;1.08;;
54881;SDS011;40775;51.448;4.742;2023-08-24T03:01:42;2.58;;;1.10;;
54881;SDS011;40775;51.448;4.742;2023-08-24T03:04:09;2.22;;;1.05;;
54881;SDS011;40775;51.448;4.742;2023-08-24T03:06:36;2.17;;;1.10;;
54881;SDS011;40775;51.448;4.742;2023-08-24T03:09:03;2.42;;;1.10;;
54881;SDS011;40775;51.448;4.742;2023-08-24T03:11:30;1.92;;;1.10;;
54881;SDS011;40775;51.448;4.742;2023-08-24T03:13:57;2.97;;;1.60;;
54881;SDS011;40775;51.448;4.742;2023-08-24T03:16:24;2.00;;;1.10;;
54881;SDS011;40775;51.448;4.742;2023-08-24T03:18:52;1.92;;;1.00;;
54881;SDS011;40775;51.448;4.742;2023-08-24T03:21:19;2.08;;;1.20;;
54881;SDS011;40775;51.448;4.742;2023-08-24T03:23:46;1.35;;;1.00;;
54881;SDS011;40775;51.448;4.742;2023-08-24T03:26:13;1.52;;;1.00;;
54881;SDS011;40775;51.448;4.742;2023-08-24T03:28:42;1.77;;;1.02;;
54881;SDS011;40775;51.448;4.742;2023-08-24T03:31:09;1.63;;;1.10;;
54881;SDS011;40775;51.448;4.742;2023-08-24T03:33:36;1.45;;;0.93;;
54881;SDS011;40775;51.448;4.742;2023-08-24T03:36:03;3.03;;;1.38;;
54881;SDS011;40775;51.448;4.742;2023-08-24T03:38:30;2.58;;;1.27;;
54881;SDS011;40775;51.448;4.742;2023-08-24T03:41:01;3.63;;;1.50;;
54881;SDS011;40775;51.448;4.742;2023-08-24T03:43:33;3.70;;;1.33;;
54881;SDS011;40775;51.448;4.742;2023-08-24T03:46:01;1.85;;;1.00;;
54881;SDS011;40775;51.448;4.742;2023-08-24T03:48:30;2.72;;;1.23;;
54881;SDS011;40775;51.448;4.742;2023-08-24T03:50:58;4.75;;;1.85;;
54881;SDS011;40775;51.448;4.742;2023-08-24T03:53:26;2.92;;;1.35;;
54881;SDS011;40775;51.448;4.742;2023-08-24T03:55:53;2.03;;;1.27;;
54881;SDS011;40775;51.448;4.742;2023-08-24T03:58:20;2.35;;;1.30;;
54881;SDS011;40775;51.448;4.742;2023-08-24T04:00:47;4.00;;;1.50;;
54881;SDS011;40775;51.448;4.742;2023-08-24T04:03:14;2.45;;;1.48;;
54881;SDS011;40775;51.448;4.742;2023-08-24T04:05:42;3.80;;;1.20;;
54881;SDS011;40775;51.448;4.742;2023-08-24T04:08:09;2.60;;;1.38;;
54881;SDS011;40775;51.448;4.742;2023-08-24T04:10:37;2.90;;;1.25;;
54881;SDS011;40775;51.448;4.742;2023-08-24T04:13:04;2.03;;;1.17;;
54881;SDS011;40775;51.448;4.742;2023-08-24T04:15:31;2.67;;;1.33;;
54881;SDS011;40775;51.448;4.742;2023-08-24T04:17:58;3.80;;;1.55;;
54881;SDS011;40775;51.448;4.742;2023-08-24T04:20:25;6.13;;;1.75;;
54881;SDS011;40775;51.448;4.742;2023-08-24T04:22:54;2.70;;;1.27;;
54881;SDS011;40775;51.448;4.742;2023-08-24T04:25:21;2.92;;;1.60;;
54881;SDS011;40775;51.448;4.742;2023-08-24T04:27:48;2.60;;;1.20;;
54881;SDS011;40775;51.448;4.742;2023-08-24T04:30:19;2.95;;;1.50;;
54881;SDS011;40775;51.448;4.742;2023-08-24T04:32:48;2.30;;;1.13;;
54881;SDS011;40775;51.448;4.742;2023-08-24T04:35:18;2.00;;;1.40;;
54881;SDS011;40775;51.448;4.742;2023-08-24T04:37:46;3.53;;;1.38;;
54881;SDS011;40775;51.448;4.742;2023-08-24T04:40:21;4.50;;;1.70;;
54881;SDS011;40775;51.448;4.742;2023-08-24T04:42:51;3.40;;;1.25;;
54881;SDS011;40775;51.448;4.742;2023-08-24T04:45:18;2.92;;;1.60;;
54881;SDS011;40775;51.448;4.742;2023-08-24T04:47:45;4.53;;;1.35;;
54881;SDS011;40775;51.448;4.742;2023-08-24T04:50:12;2.20;;;1.25;;
54881;SDS011;40775;51.448;4.742;2023-08-24T04:52:39;3.85;;;1.67;;
54881;SDS011;40775;51.448;4.742;2023-08-24T04:55:07;3.28;;;1.70;;
54881;SDS011;40775;51.448;4.742;2023-08-24T04:57:35;2.08;;;1.05;;
54881;SDS011;40775;51.448;4.742;2023-08-24T05:00:02;3.75;;;1.70;;
54881;SDS011;40775;51.448;4.742;2023-08-24T05:02:31;2.90;;;1.40;;
54881;SDS011;40775;51.448;4.742;2023-08-24T05:04:59;2.70;;;1.10;;
54881;SDS011;40775;51.448;4.742;2023-08-24T05:07:25;2.42;;;1.33;;
54881;SDS011;40775;51.448;4.742;2023-08-24T05:09:53;2.65;;;1.40;;
54881;SDS011;40775;51.448;4.742;2023-08-24T05:12:20;3.67;;;1.42;;
54881;SDS011;40775;51.448;4.742;2023-08-24T05:14:47;3.70;;;1.45;;
54881;SDS011;40775;51.448;4.742;2023-08-24T05:17:15;1.77;;;1.25;;
54881;SDS011;40775;51.448;4.742;2023-08-24T05:19:42;2.83;;;1.15;;
54881;SDS011;40775;51.448;4.742;2023-08-24T05:22:09;4.25;;;1.40;;
54881;SDS011;40775;51.448;4.742;2023-08-24T05:24:36;2.63;;;1.35;;
54881;SDS011;40775;51.448;4.742;2023-08-24T05:27:03;3.53;;;1.73;;
54881;SDS011;40775;51.448;4.742;2023-08-24T05:29:30;2.08;;;1.30;;
54881;SDS011;40775;51.448;4.742;2023-08-24T05:31:57;2.67;;;1.50;;
54881;SDS011;40775;51.448;4.742;2023-08-24T05:34:25;2.70;;;1.60;;
54881;SDS011;40775;51.448;4.742;2023-08-24T05:36:52;4.47;;;1.55;;
54881;SDS011;40775;51.448;4.742;2023-08-24T05:39:19;3.22;;;1.42;;
54881;SDS011;40775;51.448;4.742;2023-08-24T05:41:46;3.22;;;1.65;;
54881;SDS011;40775;51.448;4.742;2023-08-24T05:44:18;4.20;;;1.52;;
54881;SDS011;40775;51.448;4.742;2023-08-24T05:46:47;5.13;;;2.08;;
54881;SDS011;40775;51.448;4.742;2023-08-24T05:49:14;3.22;;;1.67;;
54881;SDS011;40775;51.448;4.742;2023-08-24T05:51:41;2.53;;;1.25;;
54881;SDS011;40775;51.448;4.742;2023-08-24T05:54:09;3.05;;;1.70;;
54881;SDS011;40775;51.448;4.742;2023-08-24T05:56:36;3.08;;;1.45;;
54881;SDS011;40775;51.448;4.742;2023-08-24T05:59:03;3.05;;;1.60;;
54881;SDS011;40775;51.448;4.742;2023-08-24T06:01:31;2.35;;;1.52;;
54881;SDS011;40775;51.448;4.742;2023-08-24T06:03:58;5.85;;;1.60;;
54881;SDS011;40775;51.448;4.742;2023-08-24T06:06:26;2.92;;;1.40;;
54881;SDS011;40775;51.448;4.742;2023-08-24T06:08:53;2.35;;;1.38;;
54881;SDS011;40775;51.448;4.742;2023-08-24T06:11:20;3.17;;;1.10;;
54881;SDS011;40775;51.448;4.742;2023-08-24T06:13:47;3.20;;;1.55;;
54881;SDS011;40775;51.448;4.742;2023-08-24T06:16:13;2.47;;;1.10;;
54881;SDS011;40775;51.448;4.742;2023-08-24T06:18:41;4.47;;;1.27;;
54881;SDS011;40775;51.448;4.742;2023-08-24T06:21:08;4.15;;;1.67;;
54881;SDS011;40775;51.448;4.742;2023-08-24T06:23:35;2.33;;;1.30;;
54881;SDS011;40775;51.448;4.742;2023-08-24T06:26:02;3.85;;;1.05;;
54881;SDS011;40775;51.448;4.742;2023-08-24T06:28:31;2.97;;;1.23;;
54881;SDS011;40775;51.448;4.742;2023-08-24T06:30:59;2.78;;;1.48;;
54881;SDS011;40775;51.448;4.742;2023-08-24T06:33:27;3.25;;;1.35;;
54881;SDS011;40775;51.448;4.742;2023-08-24T06:35:56;3.38;;;1.58;;
54881;SDS011;40775;51.448;4.742;2023-08-24T06:38:23;2.58;;;1.25;;
54881;SDS011;40775;51.448;4.742;2023-08-24T06:40:51;3.30;;;1.38;;
54881;SDS011;40775;51.448;4.742;2023-08-24T06:43:18;2.63;;;1.25;;
54881;SDS011;40775;51.448;4.742;2023-08-24T06:45:45;2.63;;;1.35;;
54881;SDS011;40775;51.448;4.742;2023-08-24T06:48:13;4.70;;;1.40;;
54881;SDS011;40775;51.448;4.742;2023-08-24T06:50:40;1.95;;;1.20;;
54881;SDS011;40775;51.448;4.742;2023-08-24T06:53:07;3.35;;;1.30;;
54881;SDS011;40775;51.448;4.742;2023-08-24T06:55:34;3.28;;;1.60;;
54881;SDS011;40775;51.448;4.742;2023-08-24T06:58:02;3.17;;;1.10;;
54881;SDS011;40775;51.448;4.742;2023-08-24T07:00:32;5.95;;;1.70;;
54881;SDS011;40775;51.448;4.742;2023-08-24T07:02:59;1.65;;;0.90;;
54881;SDS011;40775;51.448;4.742;2023-08-24T07:05:27;2.78;;;1.30;;
54881;SDS011;40775;51.448;4.742;2023-08-24T07:07:55;3.08;;;1.23;;
54881;SDS011;40775;51.448;4.742;2023-08-24T07:10:22;2.92;;;1.45;;
54881;SDS011;40775;51.448;4.742;2023-08-24T07:12:50;1.80;;;1.10;;
54881;SDS011;40775;51.448;4.742;2023-08-24T07:15:17;3.15;;;1.27;;
54881;SDS011;40775;51.448;4.742;2023-08-24T07:17:44;3.38;;;1.38;;
54881;SDS011;40775;51.448;4.742;2023-08-24T07:20:11;5.28;;;1.38;;
54881;SDS011;40775;51.448;4.742;2023-08-24T07:22:39;2.55;;;1.27;;
54881;SDS011;40775;51.448;4.742;2023-08-24T07:25:06;5.13;;;1.45;;
54881;SDS011;40775;51.448;4.742;2023-08-24T07:27:34;2.10;;;1.13;;
54881;SDS011;40775;51.448;4.742;2023-08-24T07:30:02;4.05;;;1.35;;
54881;SDS011;40775;51.448;4.742;2023-08-24T07:32:55;2.63;;;1.23;;
54881;SDS011;40775;51.448;4.742;2023-08-24T07:35:23;4.43;;;1.13;;
54881;SDS011;40775;51.448;4.742;2023-08-24T07:37:53;1.83;;;1.05;;
54881;SDS011;40775;51.448;4.742;2023-08-24T07:40:20;7.68;;;1.38;;
54881;SDS011;40775;51.448;4.742;2023-08-24T07:42:48;2.72;;;1.52;;
54881;SDS011;40775;51.448;4.742;2023-08-24T07:45:19;5.10;;;0.93;;
54881;SDS011;40775;51.448;4.742;2023-08-24T07:47:47;2.35;;;1.27;;
54881;SDS011;40775;51.448;4.742;2023-08-24T07:50:15;2.10;;;1.20;;
54881;SDS011;40775;51.448;4.742;2023-08-24T07:52:42;4.85;;;1.30;;
54881;SDS011;40775;51.448;4.742;2023-08-24T07:55:11;2.83;;;1.50;;
54881;SDS011;40775;51.448;4.742;2023-08-24T07:57:38;3.30;;;1.27;;
54881;SDS011;40775;51.448;4.742;2023-08-24T08:00:05;5.00;;;1.45;;
54881;SDS011;40775;51.448;4.742;2023-08-24T08:02:35;3.03;;;1.13;;
54881;SDS011;40775;51.448;4.742;2023-08-24T08:05:04;3.35;;;1.38;;
54881;SDS011;40775;51.448;4.742;2023-08-24T08:07:34;2.30;;;1.30;;
54881;SDS011;40775;51.448;4.742;2023-08-24T08:10:02;3.33;;;1.42;;
54881;SDS011;40775;51.448;4.742;2023-08-24T08:12:30;1.88;;;1.02;;
54881;SDS011;40775;51.448;4.742;2023-08-24T08:14:58;2.97;;;1.27;;
54881;SDS011;40775;51.448;4.742;2023-08-24T08:17:26;4.05;;;1.95;;
54881;SDS011;40775;51.448;4.742;2023-08-24T08:19:57;3.38;;;1.70;;
54881;SDS011;40775;51.448;4.742;2023-08-24T08:22:25;2.90;;;1.05;;
54881;SDS011;40775;51.448;4.742;2023-08-24T08:24:54;2.20;;;1.48;;
54881;SDS011;40775;51.448;4.742;2023-08-24T08:27:23;4.95;;;1.50;;
54881;SDS011;40775;51.448;4.742;2023-08-24T08:29:50;2.90;;;1.20;;
54881;SDS011;40775;51.448;4.742;2023-08-24T08:32:17;2.15;;;1.38;;
54881;SDS011;40775;51.448;4.742;2023-08-24T08:34:44;4.15;;;1.95;;
54881;SDS011;40775;51.448;4.742;2023-08-24T08:37:11;3.38;;;1.95;;
54881;SDS011;40775;51.448;4.742;2023-08-24T08:39:38;4.20;;;1.60;;
54881;SDS011;40775;51.448;4.742;2023-08-24T08:42:09;2.63;;;1.50;;
54881;SDS011;40775;51.448;4.742;2023-08-24T08:44:39;3.25;;;1.45;;
54881;SDS011;40775;51.448;4.742;2023-08-24T08:47:10;3.58;;;2.03;;
54881;SDS011;40775;51.448;4.742;2023-08-24T08:49:43;3.85;;;1.50;;
54881;SDS011;40775;51.448;4.742;2023-08-24T08:52:13;3.45;;;1.90;;
54881;SDS011;40775;51.448;4.742;2023-08-24T08:54:40;3.13;;;1.60;;
54881;SDS011;40775;51.448;4.742;2023-08-24T08:57:08;3.60;;;2.00;;
54881;SDS011;40775;51.448;4.742;2023-08-24T08:59:36;4.78;;;2.22;;
54881;SDS011;40775;51.448;4.742;2023-08-24T09:02:03;3.42;;;2.17;;
54881;SDS011;40775;51.448;4.742;2023-08-24T09:04:32;3.47;;;1.95;;
54881;SDS011;40775;51.448;4.742;2023-08-24T09:07:00;3.63;;;2.10;;
54881;SDS011;40775;51.448;4.742;2023-08-24T09:09:34;5.78;;;2.55;;
54881;SDS011;40775;51.448;4.742;2023-08-24T09:12:01;2.50;;;1.45;;
54881;SDS011;40775;51.448;4.742;2023-08-24T09:14:32;3.55;;;2.08;;
54881;SDS011;40775;51.448;4.742;2023-08-24T09:17:00;5.68;;;2.20;;
54881;SDS011;40775;51.448;4.742;2023-08-24T09:19:32;3.95;;;2.15;;
54881;SDS011;40775;51.448;4.742;2023-08-24T09:22:02;4.65;;;2.30;;
54881;SDS011;40775;51.448;4.742;2023-08-24T09:24:35;3.80;;;2.10;;
54881;SDS011;40775;51.448;4.742;2023-08-24T09:27:18;3.63;;;2.20;;
54881;SDS011;40775;51.448;4.742;2023-08-24T09:29:52;3.83;;;2.20;;
54881;SDS011;40775;51.448;4.742;2023-08-24T09:32:28;3.67;;;2.35;;
54881;SDS011;40775;51.448;4.742;2023-08-24T09:35:07;3.38;;;2.38;;
54881;SDS011;40775;51.448;4.742;2023-08-24T09:37:36;4.38;;;2.55;;
54881;SDS011;40775;51.448;4.742;2023-08-24T09:40:05;7.45;;;2.38;;
54881;SDS011;40775;51.448;4.742;2023-08-24T09:42:37;4.20;;;2.60;;
54881;SDS011;40775;51.448;4.742;2023-08-24T09:45:06;5.10;;;2.40;;
54881;SDS011;40775;51.448;4.742;2023-08-24T09:47:45;6.00;;;2.72;;
54881;SDS011;40775;51.448;4.742;2023-08-24T09:50:16;4.78;;;2.38;;
54881;SDS011;40775;51.448;4.742;2023-08-24T09:52:43;3.55;;;2.05;;
54881;SDS011;40775;51.448;4.742;2023-08-24T09:55:13;4.75;;;2.55;;
54881;SDS011;40775;51.448;4.742;2023-08-24T09:57:45;4.22;;;2.75;;
54881;SDS011;40775;51.448;4.742;2023-08-24T10:00:14;4.45;;;2.67;;
54881;SDS011;40775;51.448;4.742;2023-08-24T10:02:48;5.03;;;2.35;;
54881;SDS011;40775;51.448;4.742;2023-08-24T10:05:21;3.58;;;2.30;;
54881;SDS011;40775;51.448;4.742;2023-08-24T10:08:10;5.22;;;2.53;;
54881;SDS011;40775;51.448;4.742;2023-08-24T10:10:38;4.65;;;2.50;;
54881;SDS011;40775;51.448;4.742;2023-08-24T10:13:18;4.78;;;2.72;;
54881;SDS011;40775;51.448;4.742;2023-08-24T10:15:58;4.65;;;2.53;;
54881;SDS011;40775;51.448;4.742;2023-08-24T10:18:26;4.55;;;2.58;;
54881;SDS011;40775;51.448;4.742;2023-08-24T10:20:53;5.55;;;2.70;;
54881;SDS011;40775;51.448;4.742;2023-08-24T10:23:22;5.55;;;2.85;;
54881;SDS011;40775;51.448;4.742;2023-08-24T10:25:51;5.47;;;3.17;;
54881;SDS011;40775;51.448;4.742;2023-08-24T10:28:19;4.45;;;2.90;;
54881;SDS011;40775;51.448;4.742;2023-08-24T10:30:50;4.57;;;2.47;;
54881;SDS011;40775;51.448;4.742;2023-08-24T10:33:18;5.07;;;3.00;;
54881;SDS011;40775;51.448;4.742;2023-08-24T10:35:47;4.50;;;3.00;;
54881;SDS011;40775;51.448;4.742;2023-08-24T10:38:27;5.05;;;2.78;;
54881;SDS011;40775;51.448;4.742;2023-08-24T10:41:01;4.15;;;2.35;;
54881;SDS011;40775;51.448;4.742;2023-08-24T10:43:40;5.55;;;2.58;;
54881;SDS011;40775;51.448;4.742;2023-08-24T10:46:14;4.18;;;2.70;;
54881;SDS011;40775;51.448;4.742;2023-08-24T10:51:22;3.58;;;2.40;;
54881;SDS011;40775;51.448;4.742;2023-08-24T10:53:55;3.30;;;1.67;;
54881;SDS011;40775;51.448;4.742;2023-08-24T10:56:30;6.30;;;2.67;;
54881;SDS011;40775;51.448;4.742;2023-08-24T10:59:10;5.47;;;2.60;;
54881;SDS011;40775;51.448;4.742;2023-08-24T11:01:43;5.70;;;2.90;;
54881;SDS011;40775;51.448;4.742;2023-08-24T11:04:20;4.57;;;2.97;;
54881;SDS011;40775;51.448;4.742;2023-08-24T11:06:53;4.18;;;2.47;;
54881;SDS011;40775;51.448;4.742;2023-08-24T11:09:23;6.55;;;2.85;;
54881;SDS011;40775;51.448;4.742;2023-08-24T11:11:57;4.80;;;3.03;;
54881;SDS011;40775;51.448;4.742;2023-08-24T11:14:29;5.55;;;2.75;;
54881;SDS011;40775;51.448;4.742;2023-08-24T11:17:01;4.90;;;3.08;;
54881;SDS011;40775;51.448;4.742;2023-08-24T11:19:54;5.43;;;2.80;;
54881;SDS011;40775;51.448;4.742;2023-08-24T11:22:21;4.13;;;2.67;;
54881;SDS011;40775;51.448;4.742;2023-08-24T11:24:48;4.20;;;2.88;;
54881;SDS011;40775;51.448;4.742;2023-08-24T11:27:15;5.07;;;2.65;;
54881;SDS011;40775;51.448;4.742;2023-08-24T11:29:42;4.57;;;2.28;;
54881;SDS011;40775;51.448;4.742;2023-08-24T11:32:09;4.28;;;2.80;;
54881;SDS011;40775;51.448;4.742;2023-08-24T11:34:37;5.18;;;2.67;;
54881;SDS011;40775;51.448;4.742;2023-08-24T11:37:05;4.05;;;2.40;;
54881;SDS011;40775;51.448;4.742;2023-08-24T11:39:32;6.88;;;2.70;;
54881;SDS011;40775;51.448;4.742;2023-08-24T11:42:02;4.60;;;2.42;;
54881;SDS011;40775;51.448;4.742;2023-08-24T11:44:46;3.95;;;2.28;;
54881;SDS011;40775;51.448;4.742;2023-08-24T11:47:15;4.80;;;2.58;;
54881;SDS011;40775;51.448;4.742;2023-08-24T11:49:42;4.32;;;2.53;;
54881;SDS011;40775;51.448;4.742;2023-08-24T11:52:09;4.57;;;2.42;;
54881;SDS011;40775;51.448;4.742;2023-08-24T11:54:37;7.15;;;2.55;;
54881;SDS011;40775;51.448;4.742;2023-08-24T11:57:07;3.22;;;1.95;;
54881;SDS011;40775;51.448;4.742;2023-08-24T11:59:35;4.07;;;2.75;;
54881;SDS011;40775;51.448;4.742;2023-08-24T12:02:04;7.78;;;2.70;;
54881;SDS011;40775;51.448;4.742;2023-08-24T12:04:39;3.88;;;2.25;;
54881;SDS011;40775;51.448;4.742;2023-08-24T12:07:12;3.63;;;2.55;;
54881;SDS011;40775;51.448;4.742;2023-08-24T12:09:41;4.47;;;2.85;;
54881;SDS011;40775;51.448;4.742;2023-08-24T12:12:14;3.85;;;2.08;;
54881;SDS011;40775;51.448;4.742;2023-08-24T12:14:43;4.00;;;2.17;;
54881;SDS011;40775;51.448;4.742;2023-08-24T12:17:11;4.53;;;2.33;;
54881;SDS011;40775;51.448;4.742;2023-08-24T12:19:43;5.50;;;2.70;;
54881;SDS011;40775;51.448;4.742;2023-08-24T12:22:20;5.00;;;2.80;;
54881;SDS011;40775;51.448;4.742;2023-08-24T12:24:48;4.88;;;2.60;;
54881;SDS011;40775;51.448;4.742;2023-08-24T12:27:33;4.50;;;2.28;;
54881;SDS011;40775;51.448;4.742;2023-08-24T12:30:00;4.07;;;2.45;;
54881;SDS011;40775;51.448;4.742;2023-08-24T12:32:42;5.80;;;2.50;;
54881;SDS011;40775;51.448;4.742;2023-08-24T12:35:13;4.20;;;2.37;;
54881;SDS011;40775;51.448;4.742;2023-08-24T12:37:41;4.22;;;2.35;;
54881;SDS011;40775;51.448;4.742;2023-08-24T12:40:08;5.72;;;2.80;;
54881;SDS011;40775;51.448;4.742;2023-08-24T12:42:36;4.88;;;2.58;;
54881;SDS011;40775;51.448;4.742;2023-08-24T12:45:04;3.58;;;2.22;;
54881;SDS011;40775;51.448;4.742;2023-08-24T12:47:31;4.68;;;2.33;;
54881;SDS011;40775;51.448;4.742;2023-08-24T12:50:01;3.50;;;2.08;;
54881;SDS011;40775;51.448;4.742;2023-08-24T12:52:32;4.70;;;2.30;;
54881;SDS011;40775;51.448;4.742;2023-08-24T12:55:00;2.92;;;1.52;;
54881;SDS011;40775;51.448;4.742;2023-08-24T12:57:29;6.60;;;2.30;;
54881;SDS011;40775;51.448;4.742;2023-08-24T12:59:57;3.35;;;2.00;;
54881;SDS011;40775;51.448;4.742;2023-08-24T13:02:24;3.47;;;2.05;;
54881;SDS011;40775;51.448;4.742;2023-08-24T13:05:03;3.05;;;2.05;;
54881;SDS011;40775;51.448;4.742;2023-08-24T13:07:33;4.35;;;2.00;;
54881;SDS011;40775;51.448;4.742;2023-08-24T13:10:03;3.25;;;2.00;;
54881;SDS011;40775;51.448;4.742;2023-08-24T13:12:30;3.97;;;2.30;;
54881;SDS011;40775;51.448;4.742;2023-08-24T13:14:58;4.03;;;2.20;;
54881;SDS011;40775;51.448;4.742;2023-08-24T13:17:25;3.80;;;2.22;;
54881;SDS011;40775;51.448;4.742;2023-08-24T13:19:52;4.35;;;2.22;;
54881;SDS011;40775;51.448;4.742;2023-08-24T13:22:19;3.22;;;1.70;;
54881;SDS011;40775;51.448;4.742;2023-08-24T13:24:46;3.63;;;2.05;;
54881;SDS011;40775;51.448;4.742;2023-08-24T13:27:13;3.00;;;2.03;;
54881;SDS011;40775;51.448;4.742;2023-08-24T13:29:40;3.88;;;2.10;;
54881;SDS011;40775;51.448;4.742;2023-08-24T13:32:07;3.30;;;1.40;;
54881;SDS011;40775;51.448;4.742;2023-08-24T13:34:35;4.65;;;2.00;;
54881;SDS011;40775;51.448;4.742;2023-08-24T13:37:03;3.67;;;2.03;;
54881;SDS011;40775;51.448;4.742;2023-08-24T13:39:30;4.15;;;1.92;;
54881;SDS011;40775;51.448;4.742;2023-08-24T13:42:01;5.53;;;1.85;;
54881;SDS011;40775;51.448;4.742;2023-08-24T13:44:28;3.47;;;1.80;;
54881;SDS011;40775;51.448;4.742;2023-08-24T13:46:55;3.92;;;1.98;;
54881;SDS011;40775;51.448;4.742;2023-08-24T13:49:22;2.90;;;1.60;;
54881;SDS011;40775;51.448;4.742;2023-08-24T13:52:05;3.50;;;1.90;;
54881;SDS011;40775;51.448;4.742;2023-08-24T13:54:33;3.67;;;1.80;;
54881;SDS011;40775;51.448;4.742;2023-08-24T13:57:01;3.90;;;2.15;;
54881;SDS011;40775;51.448;4.742;2023-08-24T13:59:28;4.38;;;1.95;;
54881;SDS011;40775;51.448;4.742;2023-08-24T14:01:55;3.95;;;2.03;;
54881;SDS011;40775;51.448;4.742;2023-08-24T14:04:22;3.65;;;1.90;;
54881;SDS011;40775;51.448;4.742;2023-08-24T14:06:49;2.33;;;1.77;;
54881;SDS011;40775;51.448;4.742;2023-08-24T14:09:17;3.13;;;2.08;;
54881;SDS011;40775;51.448;4.742;2023-08-24T14:11:44;4.32;;;2.08;;
54881;SDS011;40775;51.448;4.742;2023-08-24T14:14:11;3.95;;;1.67;;
54881;SDS011;40775;51.448;4.742;2023-08-24T14:16:38;4.57;;;2.10;;
54881;SDS011;40775;51.448;4.742;2023-08-24T14:19:05;3.72;;;1.98;;
54881;SDS011;40775;51.448;4.742;2023-08-24T14:21:32;3.13;;;1.90;;
54881;SDS011;40775;51.448;4.742;2023-08-24T14:24:10;3.80;;;1.80;;
54881;SDS011;40775;51.448;4.742;2023-08-24T14:26:37;5.13;;;1.75;;
54881;SDS011;40775;51.448;4.742;2023-08-24T14:29:05;3.67;;;1.73;;
54881;SDS011;40775;51.448;4.742;2023-08-24T14:31:32;3.47;;;1.75;;
54881;SDS011;40775;51.448;4.742;2023-08-24T14:34:00;2.17;;;1.60;;
54881;SDS011;40775;51.448;4.742;2023-08-24T14:36:28;2.00;;;1.35;;
54881;SDS011;40775;51.448;4.742;2023-08-24T14:38:55;4.47;;;1.95;;
54881;SDS011;40775;51.448;4.742;2023-08-24T14:41:22;2.58;;;1.48;;
54881;SDS011;40775;51.448;4.742;2023-08-24T14:43:49;2.92;;;1.58;;
54881;SDS011;40775;51.448;4.742;2023-08-24T14:46:16;2.88;;;1.33;;
54881;SDS011;40775;51.448;4.742;2023-08-24T14:48:43;3.30;;;1.70;;
54881;SDS011;40775;51.448;4.742;2023-08-24T14:51:10;6.88;;;1.92;;
54881;SDS011;40775;51.448;4.742;2023-08-24T14:53:37;3.25;;;1.50;;
54881;SDS011;40775;51.448;4.742;2023-08-24T14:56:04;3.30;;;1.70;;
54881;SDS011;40775;51.448;4.742;2023-08-24T14:58:32;1.77;;;1.08;;
54881;SDS011;40775;51.448;4.742;2023-08-24T15:00:59;3.33;;;1.45;;
54881;SDS011;40775;51.448;4.742;2023-08-24T15:03:26;3.42;;;1.70;;
54881;SDS011;40775;51.448;4.742;2023-08-24T15:06:00;3.45;;;1.50;;